Time;durP1;ratioP1;P1;durP2;ratioP2;P2;SDS_P1;SDS_P2;PMS_P1;PMS_P2;Temp;Humidity;BMP_temperature;BMP_pressure;BME280_temperature;BME280_humidity;BME280_pressure;Samples;Min_cycle;Max_cycle;Signal;HPM_P1;HPM_P2
2021/09/14 00:01:29;;;;;;;;;;;13.00;99.90;;;11.52;95.21;101216.34;2567464;30;138214;-42
2021/09/14 00:03:56;;;;;;;6.75;4.10;;;13.00;99.90;;;11.46;95.07;101218.00;2568599;30;136884;-41
2021/09/14 00:06:24;;;;;;;6.60;4.40;;;13.00;99.90;;;11.43;95.17;101212.13;2568744;30;138298;-41
2021/09/14 00:08:51;;;;;;;6.40;4.18;;;12.90;99.90;;;11.40;95.27;101220.72;2567049;30;137623;-41
2021/09/14 00:11:19;;;;;;;9.45;4.18;;;12.90;99.90;;;11.36;95.23;101212.13;2567024;30;137126;-41
2021/09/14 00:13:46;;;;;;;5.78;4.10;;;12.90;99.90;;;11.33;95.60;101212.53;2568672;30;138384;-41
2021/09/14 00:16:14;;;;;;;5.60;3.92;;;12.80;99.90;;;11.29;95.33;101220.31;2567407;30;137086;-41
2021/09/14 00:18:42;;;;;;;6.05;4.05;;;12.80;99.90;;;11.27;95.31;101213.34;2568534;30;137046;-43
2021/09/14 00:21:11;;;;;;;5.97;4.35;;;12.80;99.90;;;11.19;95.23;101212.50;2567880;30;137518;-41
2021/09/14 00:23:38;;;;;;;6.47;4.63;;;12.70;99.90;;;11.22;95.29;101216.72;2567502;30;138200;-40
2021/09/14 00:26:06;;;;;;;6.30;4.47;;;12.70;99.90;;;11.19;95.36;101222.59;2568440;30;137567;-44
2021/09/14 00:28:34;;;;;;;4.75;3.85;;;12.70;99.90;;;11.17;95.50;101211.88;2566584;30;138457;-42
2021/09/14 00:31:02;;;;;;;6.18;4.50;;;12.70;99.90;;;11.13;95.58;101207.03;2562999;30;138954;-41
2021/09/14 00:33:32;;;;;;;6.45;4.50;;;12.60;99.90;;;11.08;95.66;101213.94;2567817;30;138314;-42
2021/09/14 00:36:00;;;;;;;5.65;4.25;;;12.60;99.90;;;11.05;95.72;101214.38;2567632;30;137336;-40
2021/09/14 00:38:28;;;;;;;7.03;4.40;;;12.60;99.90;;;11.02;95.72;101206.59;2567817;30;138353;-41
2021/09/14 00:40:56;;;;;;;6.35;4.50;;;12.50;99.90;;;11.00;96.00;101208.69;2568166;30;136583;-41
2021/09/14 00:43:24;;;;;;;5.70;4.40;;;12.50;99.90;;;10.97;95.76;101203.63;2565260;30;138478;-41
2021/09/14 00:45:52;;;;;;;6.30;4.25;;;12.50;99.90;;;10.89;95.77;101201.09;2566494;30;137368;-41
2021/09/14 00:48:20;;;;;;;;;;;12.50;99.90;;;10.91;95.76;101204.47;2568265;30;137242;-41
2021/09/14 00:50:48;;;;;;;6.53;4.63;;;12.40;99.90;;;10.89;95.86;101198.38;2568079;30;137177;-41
2021/09/14 00:53:16;;;;;;;7.65;4.93;;;12.40;99.90;;;10.88;95.77;101193.97;2567352;30;137276;-40
2021/09/14 00:55:43;;;;;;;6.10;4.68;;;12.40;99.90;;;10.86;96.04;101194.16;2568423;30;136653;-42
2021/09/14 00:58:11;;;;;;;6.70;4.57;;;12.40;99.90;;;10.84;95.94;101193.53;2566025;30;139397;-41
2021/09/14 01:00:39;;;;;;;6.18;4.50;;;12.30;99.90;;;10.55;96.29;101156.47;2569467;30;137020;-37
2021/09/14 01:03:07;;;;;;;6.05;4.55;;;12.30;99.90;;;10.76;96.24;101188.25;2567983;30;138227;-39
2021/09/14 01:05:34;;;;;;;;;;;12.30;99.90;;;10.74;96.21;101190.31;2569417;30;137604;-39
2021/09/14 01:08:03;;;;;;;5.85;4.57;;;12.20;99.90;;;10.72;95.99;101190.53;2569601;30;137244;-39
2021/09/14 01:10:31;;;;;;;6.38;4.78;;;12.20;99.90;;;10.70;96.07;101192.63;2569811;30;136947;-39
2021/09/14 01:12:59;;;;;;;5.82;4.55;;;12.20;99.90;;;10.65;96.46;101193.25;2569704;30;138999;-39
2021/09/14 01:15:26;;;;;;;6.60;4.85;;;12.20;99.90;;;10.64;96.46;101185.28;2568328;30;137385;-39
2021/09/14 01:17:54;;;;;;;7.18;4.70;;;12.10;99.90;;;10.64;96.59;101185.28;2568199;30;138489;-39
2021/09/14 01:20:21;;;;;;;6.63;5.10;;;12.10;99.90;;;10.61;96.52;101189.25;2569103;30;138923;-39
2021/09/14 01:22:50;;;;;;;6.10;4.22;;;12.10;99.90;;;10.60;96.84;101181.25;2569711;30;140098;-40
2021/09/14 01:25:22;;;;;;;5.80;4.47;;;12.10;99.90;;;10.58;96.53;101183.34;2568535;30;139942;-39
2021/09/14 01:27:59;;;;;;;6.35;4.72;;;12.10;99.90;;;10.58;96.85;101180.63;2570341;30;137057;-39
2021/09/14 01:30:32;;;;;;;6.97;4.63;;;12.10;99.90;;;10.56;96.69;101193.63;2567624;30;137632;-39
2021/09/14 01:33:01;;;;;;;6.45;4.75;;;12.10;99.90;;;10.53;96.74;101186.69;2568879;30;140378;-39
2021/09/14 01:35:35;;;;;;;6.55;4.57;;;12.10;99.90;;;10.50;96.61;101184.38;2568400;30;138422;-39
2021/09/14 01:38:05;;;;;;;7.00;4.93;;;12.00;99.90;;;10.48;96.38;101190.03;2567877;30;140101;-39
2021/09/14 01:40:36;;;;;;;5.00;4.40;;;12.00;99.90;;;10.45;96.49;101190.44;2566395;30;136812;-39
2021/09/14 01:43:08;;;;;;;6.43;4.70;;;12.00;99.90;;;10.39;96.78;101187.63;2567836;30;140200;-39
2021/09/14 01:45:37;;;;;;;7.32;4.85;;;12.00;99.90;;;10.41;96.93;101197.34;2568362;30;138553;-39
2021/09/14 01:48:09;;;;;;;7.03;5.10;;;11.90;99.90;;;10.41;96.92;101194.63;2568698;30;140176;-39
2021/09/14 01:50:39;;;;;;;6.65;5.03;;;11.90;99.90;;;10.40;97.09;101192.94;2571090;30;137591;-39
2021/09/14 01:53:07;;;;;;;6.18;4.85;;;11.90;99.90;;;10.39;97.15;101196.69;2568293;30;140054;-40
2021/09/14 01:55:38;;;;;;;7.55;4.63;;;11.90;99.90;;;10.37;97.07;101198.78;2569494;30;137422;-40
2021/09/14 01:58:05;;;;;;;6.75;5.13;;;11.90;99.90;;;10.34;96.89;101191.81;2569119;30;139014;-40
2021/09/14 02:00:37;;;;;;;6.47;4.50;;;11.90;99.90;;;10.32;97.05;101196.63;2570270;30;137476;-39
2021/09/14 02:03:25;;;;;;;5.78;4.47;;;11.90;99.90;;;10.31;96.82;101196.81;2569754;30;140531;-39
2021/09/14 02:08:49;;;;;;;7.50;5.20;;;11.80;99.90;;;10.29;96.98;101193.47;2569552;30;138172;-39
2021/09/14 03:00:25;;;;;;;6.10;4.53;;;11.60;99.90;;;9.99;98.34;101167.31;2568207;30;137330;-39
2021/09/14 03:02:53;;;;;;;6.25;4.53;;;11.50;99.90;;;9.99;98.19;101171.91;2568319;30;140530;-39
2021/09/14 03:05:20;;;;;;;8.43;5.10;;;11.50;99.90;;;9.96;98.08;101167.72;2566598;30;137349;-39
2021/09/14 03:07:49;;;;;;;6.47;4.70;;;11.50;99.90;;;9.94;98.12;101164.31;2569043;30;137222;-39
2021/09/14 03:10:17;;;;;;;7.63;4.80;;;11.50;99.90;;;9.92;97.88;101155.50;2568805;30;138942;-39
2021/09/14 03:12:44;;;;;;;7.63;5.40;;;11.50;99.90;;;9.92;98.10;101156.34;2568175;30;138055;-39
2021/09/14 03:15:12;;;;;;;8.25;5.35;;;11.50;99.90;;;9.96;98.59;101158.69;2567549;30;139729;-39
2021/09/14 03:17:40;;;;;;;6.88;5.05;;;11.50;99.90;;;9.97;98.79;101161.22;2566849;30;138232;-39
2021/09/14 03:20:08;;;;;;;6.95;5.07;;;11.50;99.90;;;9.96;98.85;101158.69;2569693;30;139986;-39
2021/09/14 03:22:36;;;;;;;7.95;5.00;;;11.50;99.90;;;9.96;98.98;101166.84;2568604;30;139151;-39
2021/09/14 03:25:04;;;;;;;;;;;11.40;99.90;;;9.95;98.86;101159.72;2568790;30;137614;-39
2021/09/14 03:27:33;;;;;;;7.80;4.97;;;11.50;99.90;;;9.93;98.72;101149.88;2568148;30;138047;-39
2021/09/14 03:30:02;;;;;;;7.18;5.63;;;11.50;99.90;;;9.90;98.79;101144.81;2570358;30;137572;-39
2021/09/14 03:32:34;;;;;;;7.60;4.88;;;11.40;99.90;;;9.91;99.15;101141.03;2568605;30;138246;-39
2021/09/14 03:35:02;;;;;;;6.70;5.38;;;11.40;99.90;;;9.93;99.53;101149.88;2568511;30;138357;-39
2021/09/14 03:37:29;;;;;;;7.20;5.25;;;11.40;99.90;;;9.92;99.64;101150.91;2570152;30;139872;-39
2021/09/14 03:40:00;;;;;;;8.00;5.35;;;11.40;99.90;;;9.90;99.75;101144.81;2569345;30;136769;-39
2021/09/14 03:42:28;;;;;;;7.10;5.00;;;11.50;99.90;;;9.92;99.72;101140.00;2568208;30;139396;-39
2021/09/14 03:44:57;;;;;;;8.50;5.32;;;11.50;99.90;;;9.93;99.68;101133.50;2569093;30;138212;-39
2021/09/14 03:47:26;;;;;;;8.60;6.07;;;11.50;99.90;;;9.95;99.73;101135.19;2568166;30;139674;-39
2021/09/14 03:49:54;;;;;;;;;;;11.50;99.90;;;9.92;99.86;101134.56;2571022;30;137419;-39
2021/09/14 03:52:22;;;;;;;8.13;5.55;;;11.50;99.90;;;9.91;99.62;101134.72;2568609;30;139873;-39
2021/09/14 03:54:49;;;;;;;7.75;5.80;;;11.40;99.90;;;9.88;99.69;101129.69;2569365;30;138642;-39
2021/09/14 03:57:17;;;;;;;8.10;5.82;;;11.40;99.90;;;9.86;99.92;101120.88;2569306;30;140757;-39
2021/09/14 03:59:44;;;;;;;8.13;5.72;;;11.40;99.90;;;9.84;99.84;101123.81;2569549;30;137550;-39
2021/09/14 04:02:36;;;;;;;8.23;5.95;;;11.40;99.90;;;9.82;99.66;101122.31;2566713;30;138530;-39
2021/09/14 04:05:25;;;;;;;8.55;6.22;;;11.40;99.90;;;9.79;99.95;101115.38;2569028;30;139542;-39
2021/09/14 04:10:42;;;;;;;8.70;6.10;;;11.30;99.90;;;9.75;100.00;101104.06;2568332;30;138087;-39
2021/09/14 04:13:13;;;;;;;9.05;6.00;;;11.30;99.90;;;9.74;100.00;101096.94;2568013;30;138180;-38
2021/09/14 04:15:41;;;;;;;9.73;6.45;;;11.30;99.90;;;9.73;100.00;101097.13;2567858;30;137068;-39
2021/09/14 04:18:10;;;;;;;10.43;6.95;;;11.30;99.90;;;9.71;100.00;101083.72;2566086;30;139513;-39
2021/09/14 04:20:38;;;;;;;8.80;6.40;;;11.30;99.90;;;9.70;99.91;101084.75;2568197;30;137650;-39
2021/09/14 04:23:06;;;;;;;10.07;7.25;;;11.20;99.90;;;9.70;99.96;101083.91;2568144;30;139354;-40
2021/09/14 04:25:33;;;;;;;11.95;7.28;;;11.20;99.90;;;9.70;100.00;101094.78;2569724;30;137556;-39
2021/09/14 04:28:02;;;;;;;8.75;6.20;;;11.20;99.90;;;9.71;100.00;101101.91;2566789;30;138416;-39
2021/09/14 04:30:30;;;;;;;10.27;6.70;;;11.20;99.90;;;9.69;99.97;101090.38;2566510;30;139109;-38
2021/09/14 04:32:57;;;;;;;8.32;6.55;;;11.20;99.90;;;9.68;99.89;101089.56;2569876;30;140532;-39
2021/09/14 04:35:25;;;;;;;10.30;6.63;;;11.20;99.90;;;9.65;99.82;101089.94;2569636;30;137476;-39
2021/09/14 04:37:53;;;;;;;9.63;6.40;;;11.20;99.90;;;9.63;99.58;101087.44;2566641;30;140351;-39
2021/09/14 04:40:21;;;;;;;10.90;6.38;;;11.20;99.90;;;9.60;99.75;101087.81;2568411;30;138731;-39
2021/09/14 04:42:48;;;;;;;;;;;11.10;99.90;;;9.58;99.75;101087.19;2569703;30;138211;-39
2021/09/14 04:45:16;;;;;;;7.88;5.85;;;11.10;99.90;;;9.56;99.85;101092.00;2569382;30;138682;-39
2021/09/14 04:47:44;;;;;;;8.25;6.25;;;11.10;99.90;;;9.52;99.84;101092.59;2571909;30;140154;-39
2021/09/14 04:50:12;;;;;;;9.40;6.07;;;11.10;99.90;;;9.49;99.91;101089.22;2567923;30;139795;-39
2021/09/14 04:52:39;;;;;;;8.48;6.10;;;11.10;99.90;;;9.49;100.00;101093.81;2568912;30;138202;-39
2021/09/14 04:55:08;;;;;;;8.40;6.07;;;11.00;99.90;;;9.42;99.95;101088.34;2568083;30;139193;-39
2021/09/14 04:57:36;;;;;;;8.32;6.15;;;11.00;99.90;;;9.43;100.00;101090.03;2569933;30;139092;-39
2021/09/14 05:00:05;;;;;;;9.55;6.05;;;11.00;99.90;;;9.39;100.00;101080.53;2565815;30;139453;-39
2021/09/14 05:02:35;;;;;;;8.43;6.18;;;11.00;99.90;;;9.39;100.00;101085.16;2570293;30;139645;-39
2021/09/14 05:05:03;;;;;;;9.50;6.00;;;10.90;99.90;;;9.35;100.00;101080.13;2568916;30;139799;-39
2021/09/14 05:07:31;;;;;;;8.65;6.53;;;10.90;99.90;;;9.38;100.00;101089.75;2568340;30;139351;-39
2021/09/14 05:10:00;;;;;;;8.68;6.20;;;10.90;99.90;;;9.37;100.00;101085.34;2569782;30;137607;-39
2021/09/14 05:12:29;;;;;;;9.02;5.85;;;10.90;99.90;;;9.37;100.00;101084.53;2568919;30;139959;-39
2021/09/14 05:14:56;;;;;;;9.10;6.43;;;10.90;99.90;;;9.39;100.00;101094.16;2570619;30;136678;-39
2021/09/14 05:17:42;;;;;;;10.38;6.70;;;10.90;99.90;;;9.40;100.00;101095.84;2570721;30;137357;-39
2021/09/14 05:20:30;;;;;;;9.20;6.22;;;10.90;99.90;;;9.43;100.00;101100.91;2568125;30;136798;-39
2021/09/14 05:23:11;;;;;;;8.57;6.57;;;10.90;99.90;;;9.45;100.00;101108.88;2568649;30;140193;-39
2021/09/14 05:25:41;;;;;;;14.98;7.53;;;11.00;99.90;;;9.49;100.00;101102.84;2568293;30;136768;-40
2021/09/14 05:28:13;;;;;;;10.45;7.20;;;11.00;99.90;;;9.54;100.00;101096.78;2570883;30;139341;-39
2021/09/14 05:30:44;;;;;;;10.55;7.15;;;11.00;99.90;;;9.58;100.00;101097.22;2569924;30;137766;-39
2021/09/14 05:33:14;;;;;;;9.35;6.72;;;11.10;99.90;;;9.63;100.00;101095.59;2568051;30;136958;-39
2021/09/14 05:35:56;;;;;;;9.57;6.93;;;11.10;99.90;;;9.73;100.00;101105.28;2569587;30;137251;-39
2021/09/14 05:38:26;;;;;;;10.40;7.28;;;11.20;99.90;;;9.79;100.00;101105.34;2568384;30;139205;-39
2021/09/14 05:40:58;;;;;;;10.02;6.60;;;11.20;99.90;;;9.84;100.00;101107.47;2567440;30;139374;-39
2021/09/14 05:43:30;;;;;;;11.15;6.60;;;11.30;99.90;;;9.89;100.00;101096.81;2567953;30;139631;-39
2021/09/14 05:46:02;;;;;;;11.23;6.80;;;11.30;99.90;;;9.95;100.00;101095.16;2568106;30;140170;-39
2021/09/14 05:48:33;;;;;;;12.23;7.70;;;11.40;99.90;;;10.01;100.00;101097.06;2568070;30;140531;-38
2021/09/14 05:51:02;;;;;;;11.38;7.93;;;11.40;99.90;;;10.14;100.00;101099.03;2569455;30;138977;-39
2021/09/14 05:53:36;;;;;;;10.98;7.72;;;11.60;99.90;;;10.24;100.00;101098.66;2569878;30;139584;-39
2021/09/14 05:56:04;;;;;;;11.45;7.28;;;11.80;99.90;;;10.33;100.00;101107.47;2569104;30;138903;-39
2021/09/14 05:58:32;;;;;;;10.25;7.88;;;11.70;99.90;;;10.42;100.00;101110.88;2567903;30;139071;-39
2021/09/14 06:01:00;;;;;;;10.98;7.82;;;11.80;99.90;;;10.52;100.00;101103.19;2569160;30;137531;-39
2021/09/14 06:03:33;;;;;;;14.00;8.38;;;11.90;99.90;;;10.64;100.00;101100.69;2567809;30;139828;-38
2021/09/14 06:06:05;;;;;;;11.63;7.97;;;12.00;99.90;;;10.73;100.00;101104.03;2567665;30;139378;-39
2021/09/14 06:08:33;;;;;;;12.27;8.32;;;12.10;99.90;;;10.85;100.00;101110.59;2568590;30;138297;-39
2021/09/14 06:11:01;;;;;;;13.00;7.82;;;12.20;99.90;;;10.95;100.00;101107.47;2567939;30;138257;-39
2021/09/14 06:13:28;;;;;;;11.05;7.90;;;12.30;99.90;;;11.07;100.00;101108.50;2569177;30;139818;-39
2021/09/14 06:15:56;;;;;;;11.93;8.60;;;12.40;99.90;;;11.18;100.00;101103.50;2572546;30;137393;-39
2021/09/14 06:18:25;;;;;;;11.30;8.30;;;12.50;99.90;;;11.29;100.00;101102.84;2571137;30;138803;-39
2021/09/14 06:20:54;;;;;;;11.80;8.30;;;12.60;99.90;;;11.40;100.00;101095.06;2569550;30;137706;-39
2021/09/14 06:23:24;;;;;;;12.90;9.05;;;12.70;99.90;;;11.54;100.00;101085.81;2570035;30;138232;-38
2021/09/14 06:25:54;;;;;;;12.23;9.05;;;12.80;99.90;;;11.74;100.00;101090.41;2571010;30;137340;-38
2021/09/14 06:28:23;;;;;;;15.27;10.40;;;12.90;99.90;;;11.89;100.00;101093.72;2567769;30;140302;-39
2021/09/14 06:30:50;;;;;;;18.33;10.55;;;13.10;99.90;;;12.10;100.00;101096.44;2569248;30;138305;-39
2021/09/14 06:33:23;;;;;;;16.65;10.25;;;13.20;99.90;;;12.26;100.00;101087.72;2567985;30;139349;-40
2021/09/14 06:35:52;;;;;;;14.48;11.18;;;13.40;99.90;;;12.42;100.00;101094.59;2567922;30;140263;-39
2021/09/14 06:38:25;;;;;;;18.40;11.50;;;13.60;99.90;;;12.58;100.00;101103.34;2566510;30;138239;-40
2021/09/14 06:40:54;;;;;;;17.40;11.93;;;13.70;99.90;;;12.71;100.00;101103.25;2568140;30;137577;-39
2021/09/14 06:43:26;;;;;;;16.27;11.10;;;13.90;99.90;;;12.86;100.00;101099.41;2568166;30;140039;-40
2021/09/14 06:46:26;;;;;;;17.75;12.13;;;14.00;99.90;;;13.05;100.00;101100.31;2569629;30;136882;-39
2021/09/14 06:49:02;;;;;;;19.60;12.35;;;14.20;99.90;;;13.18;100.00;101102.09;2568101;30;137386;-39
2021/09/14 06:51:29;;;;;;;18.10;12.48;;;14.30;99.90;;;13.28;100.00;101101.59;2568928;30;137533;-40
2021/09/14 06:53:57;;;;;;;;;;;14.40;99.90;;;13.37;99.77;101109.31;2569176;30;136790;-39
2021/09/14 06:56:24;;;;;;;17.13;10.65;;;14.50;99.90;;;13.47;99.28;101108.00;2570500;30;137107;-39
2021/09/14 06:58:52;;;;;;;15.48;10.95;;;14.60;99.90;;;13.57;98.74;101108.34;2569139;30;137399;-39
2021/09/14 07:01:21;;;;;;;19.80;12.02;;;14.70;99.90;;;13.56;98.60;101084.72;2579708;30;138391;-41
2021/09/14 07:03:51;;;;;;;13.82;9.95;;;14.80;99.90;;;13.78;97.96;101097.97;2567561;30;140061;-41
2021/09/14 07:06:19;;;;;;;16.75;11.00;;;14.90;99.90;;;13.88;97.86;101100.19;2566005;30;137473;-41
2021/09/14 07:08:47;;;;;;;;;;;15.00;99.90;;;14.00;97.06;101095.66;2568410;30;139097;-41
2021/09/14 07:11:15;;;;;;;13.65;10.05;;;15.10;99.90;;;14.19;96.10;101101.09;2568380;30;137784;-41
2021/09/14 07:13:43;;;;;;;16.40;10.13;;;15.20;99.90;;;14.34;95.29;101098.00;2566366;30;138392;-41
2021/09/14 07:16:11;;;;;;;14.32;9.32;;;15.30;99.90;;;14.51;95.09;101099.00;2567397;30;137427;-41
2021/09/14 07:18:41;;;;;;;16.63;10.50;;;15.50;99.90;;;14.69;94.58;101097.28;2567985;30;137406;-41
2021/09/14 07:21:08;;;;;;;13.93;9.52;;;15.60;99.90;;;14.85;93.77;101100.47;2567181;30;137009;-41
2021/09/14 07:23:36;;;;;;;13.95;10.13;;;15.80;99.90;;;14.95;93.70;101089.75;2567242;30;138172;-41
2021/09/14 07:26:04;;;;;;;;;;;15.90;99.90;;;15.10;93.05;101100.28;2567922;30;136805;-41
2021/09/14 07:28:31;;;;;;;12.60;8.90;;;16.00;99.90;;;15.23;91.83;101104.75;2568036;30;139151;-41
2021/09/14 07:31:03;;;;;;;12.93;9.05;;;16.10;99.90;;;15.33;90.30;101102.22;2566872;30;136796;-41
2021/09/14 07:33:31;;;;;;;14.07;8.80;;;16.30;99.90;;;15.47;89.98;101093.75;2566581;30;138099;-41
2021/09/14 07:35:58;;;;;;;12.07;8.82;;;16.40;99.90;;;15.60;90.04;101089.94;2567089;30;138419;-41
2021/09/14 07:38:26;;;;;;;;;;;16.50;99.90;;;15.72;90.28;101082.50;2567375;30;138225;-41
2021/09/14 07:40:54;;;;;;;12.95;8.95;;;16.60;99.90;;;15.84;91.04;101085.22;2567496;30;136985;-41
2021/09/14 07:43:22;;;;;;;12.57;8.77;;;16.70;99.90;;;15.89;89.04;101085.38;2566830;30;138452;-40
2021/09/14 07:45:49;;;;;;;13.70;9.50;;;16.80;99.90;;;15.96;87.31;101077.00;2568812;30;136802;-41
2021/09/14 07:48:17;;;;;;;11.73;8.27;;;16.90;99.90;;;16.02;86.76;101080.69;2569119;30;138308;-42
2021/09/14 07:50:44;;;;;;;10.63;7.93;;;17.00;99.90;;;16.07;84.80;101083.56;2567214;30;137562;-41
2021/09/14 07:53:12;;;;;;;9.43;6.93;;;17.00;99.90;;;16.17;85.58;101086.50;2566634;30;137363;-41
2021/09/14 07:55:40;;;;;;;11.38;7.15;;;17.10;99.90;;;16.29;85.17;101082.91;2565166;30;136991;-41
2021/09/14 07:58:07;;;;;;;;;;;17.20;99.90;;;16.40;84.72;101082.00;2568139;30;138375;-41
2021/09/14 08:00:35;;;;;;;10.73;6.95;;;17.30;99.90;;;16.50;83.26;101078.63;2566691;30;137443;-41
2021/09/14 08:03:03;;;;;;;;;;;17.40;99.90;;;16.65;81.21;101084.41;2568047;30;138055;-41
2021/09/14 08:05:31;;;;;;;11.13;6.90;;;17.50;99.90;;;16.82;82.12;101092.72;2566941;30;136765;-42
2021/09/14 08:07:59;;;;;;;10.20;7.18;;;17.60;99.90;;;16.95;80.22;101090.72;2568247;30;138171;-41
2021/09/14 08:10:26;;;;;;;10.27;7.05;;;17.80;99.90;;;17.02;80.48;101102.47;2567385;30;137492;-40
2021/09/14 08:12:54;;;;;;;11.88;7.30;;;17.90;99.90;;;17.14;79.49;101098.78;2566817;30;138772;-41
2021/09/14 08:15:21;;;;;;;10.27;7.18;;;18.00;99.90;;;17.32;80.60;101100.44;2567458;30;137752;-41
2021/09/14 08:17:49;;;;;;;10.63;7.65;;;18.10;99.90;;;17.48;80.07;101099.63;2567623;30;137368;-41
2021/09/14 08:20:17;;;;;;;10.85;6.57;;;18.20;99.90;;;17.63;79.10;101101.75;2566956;30;138413;-41
2021/09/14 08:22:44;;;;;;;8.48;6.20;;;18.40;99.90;;;17.80;76.70;101107.25;2567575;30;137338;-44
2021/09/14 08:25:13;;;;;;;8.85;6.32;;;18.50;99.90;;;17.94;76.19;101096.66;2568267;30;137052;-41
2021/09/14 08:27:41;;;;;;;10.20;6.47;;;18.70;99.90;;;18.13;76.49;101092.78;2568174;30;136921;-42
2021/09/14 08:30:12;;;;;;;9.85;6.63;;;18.90;99.90;;;18.25;76.55;101091.56;2566939;30;138590;-41
2021/09/14 08:32:40;;;;;;;10.00;6.40;;;19.00;99.90;;;18.36;75.08;101091.69;2565848;30;138701;-41
2021/09/14 08:35:08;;;;;;;8.57;6.05;;;19.10;99.90;;;18.43;73.38;101092.31;2565704;30;136890;-41
2021/09/14 08:37:36;;;;;;;8.65;5.32;;;19.20;99.90;;;18.52;74.54;101093.53;2566049;30;138621;-39
2021/09/14 08:40:04;;;;;;;7.28;5.18;;;19.30;99.90;;;18.56;74.00;101096.59;2566299;30;136814;-39
2021/09/14 08:42:37;;;;;;;7.50;4.95;;;19.30;99.90;;;18.57;72.19;101090.00;2567378;30;137353;-39
2021/09/14 08:45:07;;;;;;;8.88;5.30;;;19.40;99.90;;;18.58;70.83;101083.38;2565301;30;136957;-41
2021/09/14 08:47:39;;;;;;;9.13;4.60;;;19.50;99.90;;;18.75;72.05;101087.97;2567057;30;137111;-41
2021/09/14 08:50:09;;;;;;;8.50;4.85;;;19.60;99.90;;;18.98;73.60;101089.59;2567810;30;137203;-41
2021/09/14 08:52:37;;;;;;;8.40;5.43;;;19.70;99.90;;;19.16;71.91;101098.59;2568091;30;137316;-41
2021/09/14 08:55:06;;;;;;;7.57;5.03;;;19.80;99.90;;;19.26;69.75;101088.44;2568063;30;136838;-41
2021/09/14 08:57:34;;;;;;;7.03;4.63;;;20.00;99.90;;;19.40;68.64;101090.75;2566421;30;137203;-42
2021/09/14 09:00:03;;;;;;;6.75;4.53;;;20.10;99.90;;;19.53;69.39;101097.75;2566345;30;137623;-41
2021/09/14 09:02:30;;;;;;;7.57;5.10;;;20.20;99.90;;;19.63;68.98;101103.38;2567880;30;138588;-43
2021/09/14 09:05:05;;;;;;;7.45;4.80;;;20.30;99.90;;;19.78;68.39;101093.47;2567721;30;137716;-39
2021/09/14 09:07:37;;;;;;;8.95;5.38;;;20.50;99.90;;;19.90;68.19;101091.34;2566974;30;137164;-40
2021/09/14 09:10:16;;;;;;;11.25;5.18;;;20.60;99.90;;;20.06;69.55;101083.13;2567277;30;137591;-40
2021/09/14 09:12:47;;;;;;;6.35;4.68;;;20.70;99.90;;;20.06;64.57;101077.59;2566041;30;138743;-41
2021/09/14 09:15:31;;;;;;;7.03;4.57;;;20.80;99.90;;;20.08;64.45;101073.44;2567097;30;137439;-42
2021/09/14 09:18:09;;;;;;;6.43;4.75;;;20.90;99.90;;;20.17;67.49;101084.00;2568311;30;137297;-41
2021/09/14 09:20:39;;;;;;;;;;;21.00;99.90;;;20.18;66.87;101080.97;2567940;30;137536;-41
2021/09/14 09:23:27;;;;;;;9.98;4.57;;;21.00;99.90;;;20.12;66.63;101077.34;2566571;30;138456;-41
2021/09/14 09:26:07;;;;;;;7.65;4.38;;;21.00;99.90;;;20.01;67.59;101074.78;2567824;30;136993;-39
2021/09/14 09:28:36;;;;;;;8.25;5.00;;;20.90;99.90;;;20.05;66.28;101071.22;2568545;30;137314;-41
2021/09/14 09:31:13;;;;;;;6.90;4.28;;;20.90;99.90;;;20.33;66.26;101071.03;2567792;30;137377;-42
2021/09/14 09:33:41;;;;;;;6.73;4.23;;;21.00;99.90;;;20.62;65.89;101067.75;2568377;30;138045;-38
2021/09/14 09:36:09;;;;;;;7.53;4.35;;;21.30;99.90;;;20.89;65.78;101066.72;2567581;30;137119;-39
2021/09/14 09:38:55;;;;;;;7.18;4.82;;;21.50;99.90;;;21.06;65.66;101064.50;2568036;30;137453;-39
2021/09/14 09:41:23;;;;;;;7.43;4.43;;;21.70;99.90;;;21.15;65.05;101058.41;2569174;30;137336;-41
2021/09/14 09:43:50;;;;;;;;;;;21.80;99.90;;;21.21;63.54;101058.13;2569414;30;138385;-39
2021/09/14 09:46:21;;;;;;;6.30;4.75;;;21.90;99.90;;;21.33;62.15;101068.94;2565942;30;137108;-38
2021/09/14 09:48:49;;;;;;;7.65;4.13;;;22.00;99.90;;;21.53;61.73;101058.91;2566906;30;138531;-39
2021/09/14 09:51:17;;;;;;;8.50;4.32;;;22.10;99.90;;;21.64;62.19;101060.56;2567237;30;137504;-36
2021/09/14 09:53:46;;;;;;;7.03;4.30;;;22.30;99.90;;;21.88;63.92;101059.94;2567538;30;137288;-40
2021/09/14 09:56:15;;;;;;;6.07;3.72;;;22.50;99.90;;;22.01;61.17;101071.53;2568809;30;136836;-39
2021/09/14 09:58:45;;;;;;;7.93;4.25;;;22.60;99.90;;;21.89;62.03;101069.94;2567497;30;138710;-41
2021/09/14 10:01:23;;;;;;;6.82;3.78;;;22.60;99.90;;;21.89;62.54;101069.94;2565995;30;137550;-38
2021/09/14 10:04:11;;;;;;;;;;;22.60;99.90;;;21.99;61.11;101071.84;2569746;30;137295;-43
2021/09/14 10:06:50;;;;;;;6.15;3.90;;;22.70;99.90;;;22.11;61.79;101068.72;2568413;30;137003;-39
2021/09/14 10:09:17;;;;;;;6.63;3.88;;;22.90;99.90;;;21.95;61.07;101066.00;2568959;30;137041;-40
2021/09/14 10:11:54;;;;;;;;;;;22.70;99.90;;;21.93;60.94;101062.69;2567484;30;136948;-39
2021/09/14 10:14:23;;;;;;;5.80;3.60;;;22.80;99.90;;;21.95;61.57;101062.41;2566522;30;137381;-39
2021/09/14 10:16:51;;;;;;;11.07;4.78;;;22.70;99.90;;;21.96;60.91;101051.00;2565982;30;136877;-39
2021/09/14 10:19:31;;;;;;;6.10;3.78;;;22.80;99.90;;;22.12;63.50;101045.41;2568533;30;138148;-39
2021/09/14 10:22:06;;;;;;;7.18;4.30;;;22.90;99.90;;;22.15;63.42;101042.03;2567289;30;136852;-39
2021/09/14 10:24:36;;;;;;;5.32;4.00;;;22.90;99.90;;;22.01;60.94;101047.38;2568323;30;136704;-39
2021/09/14 10:27:12;;;;;;;;;;;22.80;99.90;;;21.89;62.89;101056.03;2568843;30;136867;-40
2021/09/14 10:29:41;;;;;;;4.93;3.75;;;22.70;99.90;;;21.93;61.28;101056.31;2567344;30;136682;-38
2021/09/14 10:32:14;;;;;;;7.00;3.85;;;22.80;99.90;;;22.18;62.03;101046.22;2567604;30;136872;-39
2021/09/14 10:34:56;;;;;;;6.32;3.72;;;22.90;99.90;;;22.42;64.04;101043.56;2568593;30;138536;-36
2021/09/14 10:37:34;;;;;;;5.85;3.80;;;23.10;99.90;;;22.61;60.34;101042.91;2568850;30;137492;-39
2021/09/14 10:40:15;;;;;;;7.82;3.88;;;23.30;99.90;;;22.80;59.97;101045.81;2567003;30;138650;-39
2021/09/14 10:42:45;;;;;;;6.90;3.90;;;23.40;99.90;;;23.04;60.92;101039.50;2568241;30;136755;-39
2021/09/14 10:45:20;;;;;;;4.93;3.35;;;23.60;99.90;;;23.19;59.25;101042.13;2567132;30;138442;-40
2021/09/14 10:47:48;;;;;;;5.93;3.85;;;23.80;99.90;;;23.37;58.82;101034.22;2567373;30;136700;-39
2021/09/14 10:50:32;;;;;;;6.80;4.40;;;23.90;99.90;;;23.44;56.81;101048.59;2568567;30;138228;-39
2021/09/14 10:53:02;;;;;;;5.32;3.42;;;24.00;99.90;;;23.56;58.23;101040.69;2568243;30;136765;-39
2021/09/14 10:55:31;;;;;;;6.47;4.10;;;24.10;99.90;;;23.61;57.70;101037.03;2569706;30;138564;-39
2021/09/14 10:58:02;;;;;;;7.13;4.10;;;24.20;99.90;;;23.74;57.50;101035.47;2567216;30;137483;-39
2021/09/14 11:00:34;;;;;;;5.93;3.67;;;24.40;99.90;;;23.62;56.28;101035.06;2567728;30;138941;-38
2021/09/14 11:03:06;;;;;;;8.45;3.78;;;24.40;99.90;;;23.52;55.50;101034.06;2568223;30;137759;-39
2021/09/14 11:05:36;;;;;;;8.02;4.07;;;24.30;99.90;;;23.48;56.51;101038.56;2567465;30;136735;-40
2021/09/14 11:08:08;;;;;;;5.22;3.40;;;24.30;99.90;;;23.58;57.58;101029.25;2567873;30;137290;-40
2021/09/14 11:10:41;;;;;;;5.97;3.72;;;24.30;99.90;;;23.62;55.11;101027.53;2568129;30;138407;-39
2021/09/14 11:13:19;;;;;;;6.45;4.30;;;24.40;99.90;;;23.52;58.23;101017.34;2568201;30;137132;-39
2021/09/14 11:15:47;;;;;;;5.57;3.85;;;24.30;99.90;;;23.51;56.70;101018.47;2568597;30;138124;-39